sensor_id;sensor_type;location;lat;lon;timestamp;P1;durP1;ratioP1;P2;durP2;ratioP2
1525;SDS011;756;49.982;8.240;2022-09-13T00:01:44;7.97;;;6.37;;
1525;SDS011;756;49.982;8.240;2022-09-13T00:04:10;7.00;;;6.30;;
1525;SDS011;756;49.982;8.240;2022-09-13T00:06:37;9.30;;;6.77;;
1525;SDS011;756;49.982;8.240;2022-09-13T00:09:04;10.93;;;7.40;;
1525;SDS011;756;49.982;8.240;2022-09-13T00:11:30;16.20;;;11.20;;
1525;SDS011;756;49.982;8.240;2022-09-13T00:13:57;16.73;;;10.70;;
1525;SDS011;756;49.982;8.240;2022-09-13T00:16:25;13.43;;;9.53;;
1525;SDS011;756;49.982;8.240;2022-09-13T00:18:53;14.70;;;9.07;;
1525;SDS011;756;49.982;8.240;2022-09-13T00:21:21;9.77;;;7.83;;
1525;SDS011;756;49.982;8.240;2022-09-13T00:23:50;12.60;;;8.50;;
1525;SDS011;756;49.982;8.240;2022-09-13T00:26:19;12.40;;;7.70;;
1525;SDS011;756;49.982;8.240;2022-09-13T00:28:52;8.80;;;7.37;;
1525;SDS011;756;49.982;8.240;2022-09-13T00:31:21;11.10;;;7.97;;
1525;SDS011;756;49.982;8.240;2022-09-13T00:33:50;8.67;;;6.67;;
1525;SDS011;756;49.982;8.240;2022-09-13T00:36:17;13.30;;;7.77;;
1525;SDS011;756;49.982;8.240;2022-09-13T00:38:44;8.33;;;7.27;;
1525;SDS011;756;49.982;8.240;2022-09-13T00:41:15;10.10;;;6.93;;
1525;SDS011;756;49.982;8.240;2022-09-13T00:46:34;12.70;;;8.10;;
1525;SDS011;756;49.982;8.240;2022-09-13T00:49:23;9.63;;;7.00;;
1525;SDS011;756;49.982;8.240;2022-09-13T00:52:00;11.53;;;7.47;;
1525;SDS011;756;49.982;8.240;2022-09-13T00:54:39;9.47;;;7.40;;
1525;SDS011;756;49.982;8.240;2022-09-13T00:57:10;8.40;;;6.70;;
1525;SDS011;756;49.982;8.240;2022-09-13T00:59:42;8.07;;;7.00;;
1525;SDS011;756;49.982;8.240;2022-09-13T01:02:40;7.87;;;7.17;;
1525;SDS011;756;49.982;8.240;2022-09-13T01:05:14;7.10;;;6.40;;
1525;SDS011;756;49.982;8.240;2022-09-13T01:07:43;11.43;;;6.93;;
1525;SDS011;756;49.982;8.240;2022-09-13T01:10:11;10.10;;;7.00;;
1525;SDS011;756;49.982;8.240;2022-09-13T01:12:48;8.70;;;6.50;;
1525;SDS011;756;49.982;8.240;2022-09-13T01:15:31;6.73;;;6.13;;
1525;SDS011;756;49.982;8.240;2022-09-13T01:17:58;7.73;;;6.50;;
1525;SDS011;756;49.982;8.240;2022-09-13T01:20:27;10.53;;;8.10;;
1525;SDS011;756;49.982;8.240;2022-09-13T01:23:21;7.57;;;6.80;;
1525;SDS011;756;49.982;8.240;2022-09-13T01:32:14;7.77;;;6.57;;
1525;SDS011;756;49.982;8.240;2022-09-13T01:46:31;8.53;;;6.80;;
1525;SDS011;756;49.982;8.240;2022-09-13T01:57:19;9.80;;;8.00;;
1525;SDS011;756;49.982;8.240;2022-09-13T02:02:42;9.70;;;8.37;;
1525;SDS011;756;49.982;8.240;2022-09-13T02:05:32;12.20;;;8.13;;
1525;SDS011;756;49.982;8.240;2022-09-13T02:08:18;9.30;;;7.37;;
1525;SDS011;756;49.982;8.240;2022-09-13T02:10:59;10.53;;;8.30;;
1525;SDS011;756;49.982;8.240;2022-09-13T02:13:50;11.90;;;7.83;;
1525;SDS011;756;49.982;8.240;2022-09-13T02:16:32;9.83;;;7.77;;
1525;SDS011;756;49.982;8.240;2022-09-13T02:19:10;9.67;;;7.63;;
1525;SDS011;756;49.982;8.240;2022-09-13T02:21:42;10.30;;;7.60;;
1525;SDS011;756;49.982;8.240;2022-09-13T02:24:14;13.73;;;8.00;;
1525;SDS011;756;49.982;8.240;2022-09-13T02:26:44;8.33;;;7.23;;
1525;SDS011;756;49.982;8.240;2022-09-13T02:29:15;8.57;;;7.33;;
1525;SDS011;756;49.982;8.240;2022-09-13T02:31:49;8.60;;;7.70;;
1525;SDS011;756;49.982;8.240;2022-09-13T02:34:24;8.93;;;7.70;;
1525;SDS011;756;49.982;8.240;2022-09-13T02:36:57;10.37;;;8.63;;
1525;SDS011;756;49.982;8.240;2022-09-13T02:39:25;8.93;;;7.90;;
1525;SDS011;756;49.982;8.240;2022-09-13T02:41:59;10.60;;;7.33;;
1525;SDS011;756;49.982;8.240;2022-09-13T02:44:39;10.30;;;7.43;;
1525;SDS011;756;49.982;8.240;2022-09-13T02:52:51;10.10;;;8.33;;
1525;SDS011;756;49.982;8.240;2022-09-13T02:55:31;9.57;;;8.57;;
1525;SDS011;756;49.982;8.240;2022-09-13T02:58:11;11.83;;;7.23;;
1525;SDS011;756;49.982;8.240;2022-09-13T03:00:52;11.57;;;9.00;;
1525;SDS011;756;49.982;8.240;2022-09-13T03:03:20;9.90;;;8.90;;
1525;SDS011;756;49.982;8.240;2022-09-13T03:05:47;9.23;;;8.07;;
1525;SDS011;756;49.982;8.240;2022-09-13T03:08:14;12.10;;;8.77;;
1525;SDS011;756;49.982;8.240;2022-09-13T03:10:47;8.80;;;7.80;;
1525;SDS011;756;49.982;8.240;2022-09-13T03:22:18;8.80;;;7.90;;
1525;SDS011;756;49.982;8.240;2022-09-13T03:25:11;12.27;;;8.77;;
1525;SDS011;756;49.982;8.240;2022-09-13T03:28:12;10.23;;;7.43;;
1525;SDS011;756;49.982;8.240;2022-09-13T03:30:49;10.10;;;7.30;;
1525;SDS011;756;49.982;8.240;2022-09-13T03:34:28;8.90;;;6.93;;
1525;SDS011;756;49.982;8.240;2022-09-13T03:36:33;9.67;;;7.03;;
1525;SDS011;756;49.982;8.240;2022-09-13T03:39:11;9.53;;;7.80;;
1525;SDS011;756;49.982;8.240;2022-09-13T03:41:49;9.70;;;7.70;;
1525;SDS011;756;49.982;8.240;2022-09-13T03:44:21;9.37;;;7.97;;
1525;SDS011;756;49.982;8.240;2022-09-13T03:46:50;11.00;;;8.23;;
1525;SDS011;756;49.982;8.240;2022-09-13T03:49:23;9.33;;;7.73;;
1525;SDS011;756;49.982;8.240;2022-09-13T03:51:52;10.20;;;7.67;;
1525;SDS011;756;49.982;8.240;2022-09-13T03:54:21;9.83;;;8.07;;
1525;SDS011;756;49.982;8.240;2022-09-13T03:57:12;8.67;;;7.70;;
1525;SDS011;756;49.982;8.240;2022-09-13T03:59:45;10.50;;;8.53;;
1525;SDS011;756;49.982;8.240;2022-09-13T04:02:13;8.53;;;7.47;;
1525;SDS011;756;49.982;8.240;2022-09-13T04:04:42;11.37;;;7.80;;
1525;SDS011;756;49.982;8.240;2022-09-13T04:07:10;9.03;;;8.10;;
1525;SDS011;756;49.982;8.240;2022-09-13T04:09:39;10.57;;;8.80;;
1525;SDS011;756;49.982;8.240;2022-09-13T04:12:05;9.00;;;8.00;;
1525;SDS011;756;49.982;8.240;2022-09-13T04:14:35;9.60;;;7.17;;
1525;SDS011;756;49.982;8.240;2022-09-13T04:17:01;11.13;;;7.80;;
1525;SDS011;756;49.982;8.240;2022-09-13T04:19:28;9.00;;;8.10;;
1525;SDS011;756;49.982;8.240;2022-09-13T04:21:56;10.67;;;8.37;;
1525;SDS011;756;49.982;8.240;2022-09-13T04:24:23;9.80;;;8.27;;
1525;SDS011;756;49.982;8.240;2022-09-13T04:26:52;9.33;;;7.80;;
1525;SDS011;756;49.982;8.240;2022-09-13T04:29:19;10.43;;;7.30;;
1525;SDS011;756;49.982;8.240;2022-09-13T04:31:48;11.50;;;8.03;;
1525;SDS011;756;49.982;8.240;2022-09-13T04:34:15;9.63;;;8.63;;
1525;SDS011;756;49.982;8.240;2022-09-13T04:36:43;9.93;;;7.93;;
1525;SDS011;756;49.982;8.240;2022-09-13T04:39:11;11.70;;;8.83;;
1525;SDS011;756;49.982;8.240;2022-09-13T04:41:40;10.67;;;8.10;;
1525;SDS011;756;49.982;8.240;2022-09-13T04:44:09;10.60;;;8.33;;
1525;SDS011;756;49.982;8.240;2022-09-13T04:46:36;10.63;;;7.83;;
1525;SDS011;756;49.982;8.240;2022-09-13T04:49:03;12.17;;;8.60;;
1525;SDS011;756;49.982;8.240;2022-09-13T04:51:30;8.07;;;7.30;;
1525;SDS011;756;49.982;8.240;2022-09-13T04:53:56;12.70;;;8.43;;
1525;SDS011;756;49.982;8.240;2022-09-13T04:56:23;11.63;;;8.27;;
1525;SDS011;756;49.982;8.240;2022-09-13T04:58:52;9.53;;;8.50;;
1525;SDS011;756;49.982;8.240;2022-09-13T05:01:20;10.97;;;9.83;;
1525;SDS011;756;49.982;8.240;2022-09-13T05:03:52;11.40;;;8.70;;
1525;SDS011;756;49.982;8.240;2022-09-13T05:06:20;12.07;;;8.93;;
1525;SDS011;756;49.982;8.240;2022-09-13T05:08:51;10.53;;;8.70;;
1525;SDS011;756;49.982;8.240;2022-09-13T05:11:21;9.60;;;8.60;;
1525;SDS011;756;49.982;8.240;2022-09-13T05:13:49;11.87;;;9.00;;
1525;SDS011;756;49.982;8.240;2022-09-13T05:16:21;11.50;;;8.60;;
1525;SDS011;756;49.982;8.240;2022-09-13T05:18:49;11.10;;;8.60;;
1525;SDS011;756;49.982;8.240;2022-09-13T05:21:16;9.63;;;8.73;;
1525;SDS011;756;49.982;8.240;2022-09-13T05:23:43;10.17;;;8.13;;
1525;SDS011;756;49.982;8.240;2022-09-13T05:26:13;13.40;;;8.20;;
1525;SDS011;756;49.982;8.240;2022-09-13T05:28:40;9.43;;;8.00;;
1525;SDS011;756;49.982;8.240;2022-09-13T05:31:09;10.53;;;8.23;;
1525;SDS011;756;49.982;8.240;2022-09-13T05:33:54;13.70;;;9.40;;
1525;SDS011;756;49.982;8.240;2022-09-13T05:36:23;9.10;;;8.20;;
1525;SDS011;756;49.982;8.240;2022-09-13T05:38:51;12.83;;;8.70;;
1525;SDS011;756;49.982;8.240;2022-09-13T05:41:39;10.73;;;8.17;;
1525;SDS011;756;49.982;8.240;2022-09-13T05:44:06;11.20;;;9.10;;
1525;SDS011;756;49.982;8.240;2022-09-13T05:46:38;10.53;;;8.20;;
1525;SDS011;756;49.982;8.240;2022-09-13T05:49:05;12.10;;;8.90;;
1525;SDS011;756;49.982;8.240;2022-09-13T05:51:32;8.83;;;7.93;;
1525;SDS011;756;49.982;8.240;2022-09-13T05:53:59;11.40;;;8.57;;
1525;SDS011;756;49.982;8.240;2022-09-13T05:56:26;9.53;;;8.30;;
1525;SDS011;756;49.982;8.240;2022-09-13T05:58:55;10.63;;;8.77;;
1525;SDS011;756;49.982;8.240;2022-09-13T06:01:22;13.17;;;8.50;;
1525;SDS011;756;49.982;8.240;2022-09-13T06:03:57;10.83;;;8.40;;
1525;SDS011;756;49.982;8.240;2022-09-13T06:06:25;11.07;;;8.20;;
1525;SDS011;756;49.982;8.240;2022-09-13T06:08:52;11.10;;;8.90;;
1525;SDS011;756;49.982;8.240;2022-09-13T06:11:19;12.07;;;7.53;;
1525;SDS011;756;49.982;8.240;2022-09-13T06:13:46;9.53;;;8.23;;
1525;SDS011;756;49.982;8.240;2022-09-13T06:16:14;11.67;;;10.40;;
1525;SDS011;756;49.982;8.240;2022-09-13T06:18:42;15.70;;;8.30;;
1525;SDS011;756;49.982;8.240;2022-09-13T06:21:10;8.70;;;7.80;;
1525;SDS011;756;49.982;8.240;2022-09-13T06:23:46;12.57;;;8.30;;
1525;SDS011;756;49.982;8.240;2022-09-13T06:26:14;9.30;;;8.30;;
1525;SDS011;756;49.982;8.240;2022-09-13T06:28:42;8.60;;;6.73;;
1525;SDS011;756;49.982;8.240;2022-09-13T06:31:17;8.67;;;7.73;;
1525;SDS011;756;49.982;8.240;2022-09-13T06:33:45;8.97;;;7.30;;
1525;SDS011;756;49.982;8.240;2022-09-13T06:36:16;11.53;;;8.50;;
1525;SDS011;756;49.982;8.240;2022-09-13T06:38:44;9.57;;;7.67;;
1525;SDS011;756;49.982;8.240;2022-09-13T06:41:13;11.70;;;7.43;;
1525;SDS011;756;49.982;8.240;2022-09-13T06:43:40;8.33;;;6.30;;
1525;SDS011;756;49.982;8.240;2022-09-13T06:46:11;7.43;;;6.50;;
1525;SDS011;756;49.982;8.240;2022-09-13T06:48:50;8.07;;;6.20;;
1525;SDS011;756;49.982;8.240;2022-09-13T06:51:18;9.80;;;6.70;;
1525;SDS011;756;49.982;8.240;2022-09-13T06:53:47;9.33;;;7.20;;
1525;SDS011;756;49.982;8.240;2022-09-13T06:58:44;9.70;;;8.17;;
1525;SDS011;756;49.982;8.240;2022-09-13T07:01:16;9.97;;;7.20;;
1525;SDS011;756;49.982;8.240;2022-09-13T07:03:52;10.87;;;6.50;;
1525;SDS011;756;49.982;8.240;2022-09-13T07:06:21;8.10;;;6.93;;
1525;SDS011;756;49.982;8.240;2022-09-13T07:08:50;8.80;;;7.70;;
1525;SDS011;756;49.982;8.240;2022-09-13T07:11:19;9.17;;;6.97;;
1525;SDS011;756;49.982;8.240;2022-09-13T07:13:50;8.50;;;7.00;;
1525;SDS011;756;49.982;8.240;2022-09-13T07:16:18;7.33;;;6.40;;
1525;SDS011;756;49.982;8.240;2022-09-13T07:18:49;6.33;;;5.73;;
1525;SDS011;756;49.982;8.240;2022-09-13T07:21:20;8.47;;;7.30;;
1525;SDS011;756;49.982;8.240;2022-09-13T07:23:48;8.50;;;7.30;;
1525;SDS011;756;49.982;8.240;2022-09-13T07:26:16;9.83;;;7.60;;
1525;SDS011;756;49.982;8.240;2022-09-13T07:28:43;8.47;;;6.87;;
1525;SDS011;756;49.982;8.240;2022-09-13T07:31:13;12.20;;;7.90;;
1525;SDS011;756;49.982;8.240;2022-09-13T07:33:41;11.77;;;8.80;;
1525;SDS011;756;49.982;8.240;2022-09-13T07:36:09;10.83;;;9.47;;
1525;SDS011;756;49.982;8.240;2022-09-13T07:38:37;13.30;;;10.20;;
1525;SDS011;756;49.982;8.240;2022-09-13T07:41:06;11.30;;;9.77;;
1525;SDS011;756;49.982;8.240;2022-09-13T07:43:37;11.80;;;10.33;;
1525;SDS011;756;49.982;8.240;2022-09-13T07:46:05;10.43;;;8.60;;
1525;SDS011;756;49.982;8.240;2022-09-13T07:48:35;11.40;;;8.70;;
1525;SDS011;756;49.982;8.240;2022-09-13T07:51:07;13.70;;;9.80;;
1525;SDS011;756;49.982;8.240;2022-09-13T07:53:54;14.07;;;10.03;;
1525;SDS011;756;49.982;8.240;2022-09-13T07:56:27;11.87;;;9.03;;
1525;SDS011;756;49.982;8.240;2022-09-13T07:58:57;11.50;;;9.87;;
1525;SDS011;756;49.982;8.240;2022-09-13T08:01:31;12.33;;;10.80;;
1525;SDS011;756;49.982;8.240;2022-09-13T08:04:05;13.90;;;10.60;;
1525;SDS011;756;49.982;8.240;2022-09-13T08:06:34;17.80;;;11.67;;
1525;SDS011;756;49.982;8.240;2022-09-13T08:09:02;13.97;;;11.70;;
1525;SDS011;756;49.982;8.240;2022-09-13T08:11:31;11.47;;;8.70;;
1525;SDS011;756;49.982;8.240;2022-09-13T08:14:00;15.37;;;11.27;;
1525;SDS011;756;49.982;8.240;2022-09-13T08:16:28;13.57;;;11.47;;
1525;SDS011;756;49.982;8.240;2022-09-13T08:18:58;13.97;;;11.90;;
1525;SDS011;756;49.982;8.240;2022-09-13T08:21:30;12.43;;;11.00;;
1525;SDS011;756;49.982;8.240;2022-09-13T08:23:58;13.43;;;10.37;;
1525;SDS011;756;49.982;8.240;2022-09-13T08:26:26;14.27;;;10.60;;
1525;SDS011;756;49.982;8.240;2022-09-13T08:28:55;15.50;;;11.33;;
1525;SDS011;756;49.982;8.240;2022-09-13T08:31:23;14.30;;;10.97;;
1525;SDS011;756;49.982;8.240;2022-09-13T08:33:50;15.30;;;10.63;;
1525;SDS011;756;49.982;8.240;2022-09-13T08:36:17;17.70;;;10.53;;
1525;SDS011;756;49.982;8.240;2022-09-13T08:38:46;14.43;;;10.90;;
1525;SDS011;756;49.982;8.240;2022-09-13T08:44:19;11.87;;;10.63;;
1525;SDS011;756;49.982;8.240;2022-09-13T08:49:33;14.23;;;11.17;;
1525;SDS011;756;49.982;8.240;2022-09-13T08:52:14;16.87;;;12.77;;
1525;SDS011;756;49.982;8.240;2022-09-13T08:54:53;15.20;;;11.80;;
1525;SDS011;756;49.982;8.240;2022-09-13T08:57:37;15.67;;;11.97;;
1525;SDS011;756;49.982;8.240;2022-09-13T09:00:39;15.10;;;12.10;;
1525;SDS011;756;49.982;8.240;2022-09-13T09:05:53;19.87;;;12.73;;
1525;SDS011;756;49.982;8.240;2022-09-13T09:08:36;19.00;;;12.50;;
1525;SDS011;756;49.982;8.240;2022-09-13T09:11:13;15.47;;;12.87;;
1525;SDS011;756;49.982;8.240;2022-09-13T09:14:04;14.53;;;12.03;;
1525;SDS011;756;49.982;8.240;2022-09-13T09:16:47;17.50;;;12.63;;
1525;SDS011;756;49.982;8.240;2022-09-13T09:19:28;19.20;;;13.50;;
1525;SDS011;756;49.982;8.240;2022-09-13T09:22:02;13.47;;;11.50;;
1525;SDS011;756;49.982;8.240;2022-09-13T09:24:34;12.47;;;11.17;;
1525;SDS011;756;49.982;8.240;2022-09-13T09:27:17;18.97;;;13.40;;
1525;SDS011;756;49.982;8.240;2022-09-13T09:29:45;18.00;;;13.70;;
1525;SDS011;756;49.982;8.240;2022-09-13T09:37:40;18.30;;;11.90;;
1525;SDS011;756;49.982;8.240;2022-09-13T09:40:11;14.47;;;10.40;;
1525;SDS011;756;49.982;8.240;2022-09-13T09:42:40;14.70;;;12.47;;
1525;SDS011;756;49.982;8.240;2022-09-13T09:48:11;14.00;;;11.57;;
1525;SDS011;756;49.982;8.240;2022-09-13T09:50:44;15.80;;;12.60;;
1525;SDS011;756;49.982;8.240;2022-09-13T09:55:57;18.57;;;13.30;;
1525;SDS011;756;49.982;8.240;2022-09-13T09:58:41;18.97;;;12.77;;
1525;SDS011;756;49.982;8.240;2022-09-13T10:01:22;15.80;;;12.53;;
1525;SDS011;756;49.982;8.240;2022-09-13T10:04:21;18.20;;;13.40;;
1525;SDS011;756;49.982;8.240;2022-09-13T10:06:47;17.90;;;13.60;;
1525;SDS011;756;49.982;8.240;2022-09-13T10:09:15;21.30;;;14.33;;
1525;SDS011;756;49.982;8.240;2022-09-13T10:11:53;20.87;;;15.07;;
1525;SDS011;756;49.982;8.240;2022-09-13T10:17:03;18.43;;;12.83;;
1525;SDS011;756;49.982;8.240;2022-09-13T10:19:49;16.97;;;13.07;;
1525;SDS011;756;49.982;8.240;2022-09-13T10:22:17;16.53;;;12.37;;
1525;SDS011;756;49.982;8.240;2022-09-13T10:24:44;17.70;;;14.30;;
1525;SDS011;756;49.982;8.240;2022-09-13T10:27:22;18.20;;;13.50;;
1525;SDS011;756;49.982;8.240;2022-09-13T10:30:28;15.83;;;13.10;;
1525;SDS011;756;49.982;8.240;2022-09-13T10:35:57;13.67;;;11.87;;
1525;SDS011;756;49.982;8.240;2022-09-13T10:38:31;14.70;;;11.33;;
1525;SDS011;756;49.982;8.240;2022-09-13T10:41:19;15.57;;;10.90;;
1525;SDS011;756;49.982;8.240;2022-09-13T10:43:48;13.27;;;10.17;;
1525;SDS011;756;49.982;8.240;2022-09-13T10:46:26;12.20;;;8.60;;
1525;SDS011;756;49.982;8.240;2022-09-13T10:48:59;9.13;;;7.60;;
1525;SDS011;756;49.982;8.240;2022-09-13T10:56:40;10.03;;;8.03;;
1525;SDS011;756;49.982;8.240;2022-09-13T11:07:54;10.20;;;7.80;;
1525;SDS011;756;49.982;8.240;2022-09-13T11:26:51;7.60;;;5.53;;
1525;SDS011;756;49.982;8.240;2022-09-13T11:29:34;6.50;;;5.20;;
1525;SDS011;756;49.982;8.240;2022-09-13T11:37:51;8.40;;;7.07;;
1525;SDS011;756;49.982;8.240;2022-09-13T11:55:16;11.00;;;7.53;;
1525;SDS011;756;49.982;8.240;2022-09-13T11:57:49;9.70;;;7.57;;
1525;SDS011;756;49.982;8.240;2022-09-13T12:00:19;8.83;;;7.93;;
1525;SDS011;756;49.982;8.240;2022-09-13T12:05:40;10.47;;;7.63;;
1525;SDS011;756;49.982;8.240;2022-09-13T12:08:18;8.70;;;6.80;;
1525;SDS011;756;49.982;8.240;2022-09-13T12:10:57;7.27;;;6.57;;
1525;SDS011;756;49.982;8.240;2022-09-13T12:13:40;8.60;;;6.50;;
1525;SDS011;756;49.982;8.240;2022-09-13T12:16:10;8.73;;;6.70;;
1525;SDS011;756;49.982;8.240;2022-09-13T12:18:43;8.00;;;7.17;;
1525;SDS011;756;49.982;8.240;2022-09-13T12:21:15;9.50;;;6.77;;
1525;SDS011;756;49.982;8.240;2022-09-13T12:26:34;9.10;;;6.67;;
1525;SDS011;756;49.982;8.240;2022-09-13T12:32:01;8.90;;;7.50;;
1525;SDS011;756;49.982;8.240;2022-09-13T12:34:45;9.50;;;8.37;;
1525;SDS011;756;49.982;8.240;2022-09-13T12:46:20;9.37;;;8.40;;
1525;SDS011;756;49.982;8.240;2022-09-13T12:54:32;16.07;;;9.70;;
1525;SDS011;756;49.982;8.240;2022-09-13T13:02:51;14.00;;;10.30;;
1525;SDS011;756;49.982;8.240;2022-09-13T13:05:40;13.63;;;9.97;;
1525;SDS011;756;49.982;8.240;2022-09-13T13:13:41;9.73;;;7.83;;
1525;SDS011;756;49.982;8.240;2022-09-13T13:19:02;11.80;;;9.27;;
1525;SDS011;756;49.982;8.240;2022-09-13T13:21:32;10.77;;;7.80;;
1525;SDS011;756;49.982;8.240;2022-09-13T13:29:18;13.17;;;8.50;;
1525;SDS011;756;49.982;8.240;2022-09-13T13:34:39;11.30;;;9.20;;
1525;SDS011;756;49.982;8.240;2022-09-13T13:39:44;11.77;;;9.83;;
1525;SDS011;756;49.982;8.240;2022-09-13T13:45:04;10.93;;;9.27;;
1525;SDS011;756;49.982;8.240;2022-09-13T13:48:06;10.33;;;8.97;;
1525;SDS011;756;49.982;8.240;2022-09-13T13:50:35;10.87;;;8.80;;
1525;SDS011;756;49.982;8.240;2022-09-13T13:53:44;11.60;;;9.47;;
1525;SDS011;756;49.982;8.240;2022-09-13T13:56:19;10.33;;;8.33;;
1525;SDS011;756;49.982;8.240;2022-09-13T13:58:56;11.57;;;9.07;;
1525;SDS011;756;49.982;8.240;2022-09-13T14:01:29;11.07;;;9.33;;
1525;SDS011;756;49.982;8.240;2022-09-13T14:09:57;13.13;;;9.60;;
1525;SDS011;756;49.982;8.240;2022-09-13T14:12:52;11.17;;;9.37;;
1525;SDS011;756;49.982;8.240;2022-09-13T14:15:47;12.33;;;9.47;;
1525;SDS011;756;49.982;8.240;2022-09-13T14:21:20;9.90;;;8.90;;
1525;SDS011;756;49.982;8.240;2022-09-13T14:26:50;11.17;;;8.20;;
1525;SDS011;756;49.982;8.240;2022-09-13T14:29:23;10.53;;;9.43;;
1525;SDS011;756;49.982;8.240;2022-09-13T14:31:54;14.60;;;11.20;;
1525;SDS011;756;49.982;8.240;2022-09-13T14:34:28;13.77;;;11.23;;
1525;SDS011;756;49.982;8.240;2022-09-13T14:36:58;13.73;;;11.40;;
1525;SDS011;756;49.982;8.240;2022-09-13T14:39:26;12.27;;;10.70;;
1525;SDS011;756;49.982;8.240;2022-09-13T14:41:56;12.60;;;11.30;;
1525;SDS011;756;49.982;8.240;2022-09-13T14:44:28;14.47;;;10.67;;
1525;SDS011;756;49.982;8.240;2022-09-13T14:49:48;12.73;;;10.17;;
1525;SDS011;756;49.982;8.240;2022-09-13T14:52:26;12.00;;;10.63;;
1525;SDS011;756;49.982;8.240;2022-09-13T14:55:00;13.00;;;11.20;;
1525;SDS011;756;49.982;8.240;2022-09-13T14:57:33;10.10;;;8.90;;
1525;SDS011;756;49.982;8.240;2022-09-13T15:00:14;13.47;;;11.10;;
1525;SDS011;756;49.982;8.240;2022-09-13T15:02:51;13.93;;;11.30;;
1525;SDS011;756;49.982;8.240;2022-09-13T15:05:21;13.27;;;10.97;;
1525;SDS011;756;49.982;8.240;2022-09-13T15:07:51;12.47;;;10.03;;
1525;SDS011;756;49.982;8.240;2022-09-13T15:10:22;11.53;;;10.23;;
1525;SDS011;756;49.982;8.240;2022-09-13T15:12:53;14.30;;;10.40;;
1525;SDS011;756;49.982;8.240;2022-09-13T15:15:44;13.43;;;8.93;;
1525;SDS011;756;49.982;8.240;2022-09-13T15:23:26;13.63;;;8.53;;
1525;SDS011;756;49.982;8.240;2022-09-13T15:26:03;10.77;;;8.63;;
1525;SDS011;756;49.982;8.240;2022-09-13T15:31:21;10.00;;;9.00;;
1525;SDS011;756;49.982;8.240;2022-09-13T15:36:45;9.33;;;7.83;;
1525;SDS011;756;49.982;8.240;2022-09-13T15:39:15;9.40;;;7.40;;
1525;SDS011;756;49.982;8.240;2022-09-13T15:41:55;10.03;;;7.70;;
1525;SDS011;756;49.982;8.240;2022-09-13T15:44:24;10.37;;;8.37;;
1525;SDS011;756;49.982;8.240;2022-09-13T15:46:53;9.90;;;8.73;;
1525;SDS011;756;49.982;8.240;2022-09-13T15:49:24;12.23;;;8.97;;
1525;SDS011;756;49.982;8.240;2022-09-13T15:51:59;10.83;;;8.40;;
1525;SDS011;756;49.982;8.240;2022-09-13T15:54:32;10.00;;;8.90;;
1525;SDS011;756;49.982;8.240;2022-09-13T15:57:08;26.53;;;9.60;;
1525;SDS011;756;49.982;8.240;2022-09-13T15:59:42;10.60;;;8.30;;
1525;SDS011;756;49.982;8.240;2022-09-13T16:02:16;10.30;;;8.30;;
1525;SDS011;756;49.982;8.240;2022-09-13T16:04:48;14.90;;;9.27;;
1525;SDS011;756;49.982;8.240;2022-09-13T16:07:15;12.10;;;9.37;;
1525;SDS011;756;49.982;8.240;2022-09-13T16:09:42;10.27;;;9.27;;
1525;SDS011;756;49.982;8.240;2022-09-13T16:12:10;12.97;;;9.63;;
1525;SDS011;756;49.982;8.240;2022-09-13T16:14:37;13.60;;;8.80;;
1525;SDS011;756;49.982;8.240;2022-09-13T16:17:25;13.50;;;8.70;;
1525;SDS011;756;49.982;8.240;2022-09-13T16:19:53;13.00;;;9.20;;
1525;SDS011;756;49.982;8.240;2022-09-13T16:22:20;16.10;;;8.93;;
1525;SDS011;756;49.982;8.240;2022-09-13T16:24:47;10.00;;;8.50;;
1525;SDS011;756;49.982;8.240;2022-09-13T16:27:16;14.80;;;9.17;;
1525;SDS011;756;49.982;8.240;2022-09-13T16:29:43;10.60;;;9.23;;
1525;SDS011;756;49.982;8.240;2022-09-13T16:32:10;14.93;;;10.23;;
1525;SDS011;756;49.982;8.240;2022-09-13T16:34:37;10.87;;;9.53;;
1525;SDS011;756;49.982;8.240;2022-09-13T16:37:04;13.40;;;9.07;;
1525;SDS011;756;49.982;8.240;2022-09-13T16:39:31;11.10;;;9.10;;
1525;SDS011;756;49.982;8.240;2022-09-13T16:41:57;10.87;;;9.20;;
1525;SDS011;756;49.982;8.240;2022-09-13T16:44:24;10.30;;;9.30;;
1525;SDS011;756;49.982;8.240;2022-09-13T16:46:51;11.60;;;9.23;;
1525;SDS011;756;49.982;8.240;2022-09-13T16:49:17;10.70;;;9.60;;
1525;SDS011;756;49.982;8.240;2022-09-13T16:51:44;10.33;;;8.90;;
1525;SDS011;756;49.982;8.240;2022-09-13T16:54:11;10.20;;;9.00;;
1525;SDS011;756;49.982;8.240;2022-09-13T16:56:37;11.20;;;9.40;;
1525;SDS011;756;49.982;8.240;2022-09-13T16:59:04;12.67;;;8.97;;
1525;SDS011;756;49.982;8.240;2022-09-13T17:01:31;8.77;;;7.80;;
1525;SDS011;756;49.982;8.240;2022-09-13T17:03:57;12.00;;;9.70;;
1525;SDS011;756;49.982;8.240;2022-09-13T17:06:25;10.20;;;8.30;;
1525;SDS011;756;49.982;8.240;2022-09-13T17:08:53;12.33;;;10.73;;
1525;SDS011;756;49.982;8.240;2022-09-13T17:11:23;10.70;;;7.97;;
1525;SDS011;756;49.982;8.240;2022-09-13T17:13:51;11.27;;;8.80;;
1525;SDS011;756;49.982;8.240;2022-09-13T17:16:26;10.20;;;9.10;;
1525;SDS011;756;49.982;8.240;2022-09-13T17:19:01;12.43;;;10.97;;
1525;SDS011;756;49.982;8.240;2022-09-13T17:21:31;9.77;;;8.87;;
1525;SDS011;756;49.982;8.240;2022-09-13T17:23:59;12.17;;;10.43;;
1525;SDS011;756;49.982;8.240;2022-09-13T17:26:26;11.03;;;9.80;;
1525;SDS011;756;49.982;8.240;2022-09-13T17:28:53;10.07;;;8.93;;
1525;SDS011;756;49.982;8.240;2022-09-13T17:31:19;10.30;;;8.90;;
1525;SDS011;756;49.982;8.240;2022-09-13T17:33:46;13.20;;;10.07;;
1525;SDS011;756;49.982;8.240;2022-09-13T17:36:13;11.43;;;10.10;;
1525;SDS011;756;49.982;8.240;2022-09-13T17:38:40;12.50;;;10.43;;
1525;SDS011;756;49.982;8.240;2022-09-13T17:41:08;10.97;;;9.20;;
1525;SDS011;756;49.982;8.240;2022-09-13T17:43:37;14.43;;;9.60;;
1525;SDS011;756;49.982;8.240;2022-09-13T17:46:05;10.40;;;9.30;;
1525;SDS011;756;49.982;8.240;2022-09-13T17:48:37;9.57;;;8.60;;
1525;SDS011;756;49.982;8.240;2022-09-13T17:51:25;11.80;;;9.00;;
1525;SDS011;756;49.982;8.240;2022-09-13T17:53:55;9.70;;;8.37;;
1525;SDS011;756;49.982;8.240;2022-09-13T17:56:27;11.07;;;9.00;;
1525;SDS011;756;49.982;8.240;2022-09-13T17:58:56;10.57;;;8.63;;
1525;SDS011;756;49.982;8.240;2022-09-13T18:01:35;9.77;;;8.77;;
1525;SDS011;756;49.982;8.240;2022-09-13T18:04:03;12.37;;;8.90;;
1525;SDS011;756;49.982;8.240;2022-09-13T18:06:34;12.47;;;9.17;;
1525;SDS011;756;49.982;8.240;2022-09-13T18:09:03;11.77;;;9.50;;
1525;SDS011;756;49.982;8.240;2022-09-13T18:11:30;12.87;;;9.10;;
1525;SDS011;756;49.982;8.240;2022-09-13T18:13:56;11.33;;;9.00;;
1525;SDS011;756;49.982;8.240;2022-09-13T18:16:24;13.10;;;9.20;;
1525;SDS011;756;49.982;8.240;2022-09-13T18:18:52;14.83;;;9.30;;
1525;SDS011;756;49.982;8.240;2022-09-13T18:21:19;10.83;;;8.47;;
1525;SDS011;756;49.982;8.240;2022-09-13T18:23:53;12.00;;;8.80;;
1525;SDS011;756;49.982;8.240;2022-09-13T18:26:23;16.60;;;9.73;;
1525;SDS011;756;49.982;8.240;2022-09-13T18:28:55;10.27;;;8.20;;
1525;SDS011;756;49.982;8.240;2022-09-13T18:31:29;11.20;;;8.27;;
1525;SDS011;756;49.982;8.240;2022-09-13T18:33:58;11.40;;;8.70;;
1525;SDS011;756;49.982;8.240;2022-09-13T18:36:28;12.33;;;9.17;;
1525;SDS011;756;49.982;8.240;2022-09-13T18:38:55;9.80;;;8.50;;
1525;SDS011;756;49.982;8.240;2022-09-13T18:41:26;9.90;;;8.90;;
1525;SDS011;756;49.982;8.240;2022-09-13T18:43:56;10.33;;;8.80;;
1525;SDS011;756;49.982;8.240;2022-09-13T18:46:26;13.83;;;9.50;;
1525;SDS011;756;49.982;8.240;2022-09-13T18:48:55;9.27;;;8.30;;
1525;SDS011;756;49.982;8.240;2022-09-13T18:51:27;12.43;;;9.13;;
1525;SDS011;756;49.982;8.240;2022-09-13T18:53:56;11.40;;;9.60;;
1525;SDS011;756;49.982;8.240;2022-09-13T18:56:24;11.60;;;10.30;;
1525;SDS011;756;49.982;8.240;2022-09-13T18:58:52;12.60;;;9.63;;
1525;SDS011;756;49.982;8.240;2022-09-13T19:03:55;11.80;;;9.23;;
1525;SDS011;756;49.982;8.240;2022-09-13T19:06:30;12.33;;;9.87;;
1525;SDS011;756;49.982;8.240;2022-09-13T19:08:59;10.33;;;9.23;;
1525;SDS011;756;49.982;8.240;2022-09-13T19:11:27;11.10;;;7.83;;
1525;SDS011;756;49.982;8.240;2022-09-13T19:14:13;10.30;;;9.30;;